createdAt,value
2022-10-31T00:01:24.370Z,14.50
2022-10-31T00:03:51.146Z,14.60
2022-10-31T00:06:23.368Z,14.60
2022-10-31T00:08:56.512Z,14.60
2022-10-31T00:11:23.874Z,14.60
2022-10-31T00:13:52.761Z,14.50
2022-10-31T00:16:27.241Z,14.50
2022-10-31T00:18:56.640Z,14.50
2022-10-31T00:21:23.907Z,14.50
2022-10-31T00:23:51.174Z,14.50
2022-10-31T00:26:18.744Z,14.50
2022-10-31T00:28:45.942Z,14.50
2022-10-31T00:31:14.012Z,14.50
2022-10-31T00:33:42.067Z,14.50
2022-10-31T00:36:13.360Z,14.50
2022-10-31T00:38:42.090Z,14.50
2022-10-31T00:41:09.424Z,14.50
2022-10-31T00:43:38.771Z,14.40
2022-10-31T00:46:05.955Z,14.40
2022-10-31T00:48:32.755Z,14.40
2022-10-31T00:50:59.891Z,14.40
2022-10-31T00:53:27.457Z,14.40
2022-10-31T00:55:56.861Z,14.40
2022-10-31T00:58:23.732Z,14.40
2022-10-31T01:00:56.287Z,14.30
2022-10-31T01:03:30.592Z,14.30
2022-10-31T01:06:08.907Z,14.30
2022-10-31T01:08:37.503Z,14.30
2022-10-31T01:11:22.385Z,14.30
2022-10-31T01:13:52.170Z,14.30
2022-10-31T01:16:21.339Z,14.30
2022-10-31T01:18:53.127Z,14.30
2022-10-31T01:21:23.022Z,14.30
2022-10-31T01:23:51.066Z,14.30
2022-10-31T01:26:23.748Z,14.30
2022-10-31T01:29:06.700Z,14.20
2022-10-31T01:31:39.032Z,14.20
2022-10-31T01:34:15.294Z,14.20
2022-10-31T01:36:43.619Z,14.20
2022-10-31T01:39:13.496Z,14.20
2022-10-31T01:41:46.440Z,14.10
2022-10-31T01:44:16.679Z,14.10
2022-10-31T01:46:54.909Z,14.10
2022-10-31T01:49:35.338Z,14.00
2022-10-31T01:52:12.307Z,14.00
2022-10-31T01:54:44.094Z,14.00
2022-10-31T01:57:17.788Z,14.00
2022-10-31T01:59:50.474Z,13.90
2022-10-31T02:02:22.964Z,13.90
2022-10-31T02:04:49.952Z,13.90
2022-10-31T02:07:25.417Z,13.90
2022-10-31T02:09:56.847Z,13.90
2022-10-31T02:12:24.439Z,13.90
2022-10-31T02:14:57.494Z,13.90
2022-10-31T02:17:27.081Z,13.80
2022-10-31T02:19:57.763Z,13.80
2022-10-31T02:22:41.028Z,13.80
2022-10-31T02:25:13.686Z,13.80
2022-10-31T02:31:13.452Z,13.70
2022-10-31T02:33:56.660Z,13.70
2022-10-31T02:36:41.941Z,13.70
2022-10-31T02:39:17.103Z,13.70
2022-10-31T02:41:50.122Z,13.70
2022-10-31T02:44:31.282Z,13.70
2022-10-31T02:47:15.424Z,13.60
2022-10-31T02:50:03.803Z,13.60
2022-10-31T02:52:36.562Z,13.60
2022-10-31T02:55:27.369Z,13.60
2022-10-31T02:58:09.552Z,13.60
2022-10-31T03:01:16.664Z,13.50
2022-10-31T03:04:07.370Z,13.60
2022-10-31T03:07:15.562Z,13.50
2022-10-31T03:09:56.452Z,13.50
2022-10-31T03:12:44.489Z,13.50
2022-10-31T03:15:18.118Z,13.60
2022-10-31T03:18:00.003Z,13.50
2022-10-31T03:20:41.075Z,13.50
2022-10-31T03:23:18.855Z,13.50
2022-10-31T03:25:56.611Z,13.50
2022-10-31T03:28:35.733Z,13.50
2022-10-31T03:31:10.991Z,13.50
2022-10-31T03:33:49.496Z,13.50
2022-10-31T03:36:28.087Z,13.50
2022-10-31T03:39:01.771Z,13.50
2022-10-31T03:41:34.448Z,13.50
2022-10-31T03:44:11.773Z,13.50
2022-10-31T03:46:46.227Z,13.40
2022-10-31T03:49:18.143Z,13.40
2022-10-31T03:52:35.879Z,13.40
2022-10-31T03:55:28.211Z,13.40
2022-10-31T03:58:05.289Z,13.40
2022-10-31T04:00:40.500Z,13.40
2022-10-31T04:03:16.411Z,13.40
2022-10-31T04:05:54.210Z,13.30
2022-10-31T04:08:28.559Z,13.30
2022-10-31T04:11:01.130Z,13.30
2022-10-31T04:13:37.699Z,13.30
2022-10-31T04:16:17.126Z,13.30
2022-10-31T04:18:54.186Z,13.30
2022-10-31T04:21:30.074Z,13.30
2022-10-31T04:23:59.574Z,13.30
2022-10-31T04:26:30.912Z,13.20
2022-10-31T04:28:59.636Z,13.30
2022-10-31T04:31:31.688Z,13.20
2022-10-31T04:34:00.747Z,13.20
2022-10-31T04:36:28.998Z,13.20
2022-10-31T04:38:57.549Z,13.20
2022-10-31T04:41:42.056Z,13.20
2022-10-31T04:44:15.369Z,13.20
2022-10-31T04:46:43.949Z,13.10
2022-10-31T04:49:12.418Z,13.10
2022-10-31T04:51:45.827Z,13.20
2022-10-31T04:54:17.588Z,13.20
2022-10-31T04:57:04.705Z,13.20
2022-10-31T04:59:41.912Z,13.10
2022-10-31T05:02:18.542Z,13.10
2022-10-31T05:04:57.279Z,13.10
2022-10-31T05:07:31.331Z,13.10
2022-10-31T05:10:05.582Z,13.10
2022-10-31T05:12:35.164Z,13.10
2022-10-31T05:15:11.800Z,13.10
2022-10-31T05:17:58.628Z,13.10
2022-10-31T05:20:49.659Z,13.00
2022-10-31T05:23:38.353Z,13.00
2022-10-31T05:26:14.274Z,13.00
2022-10-31T05:28:43.820Z,13.00
2022-10-31T05:31:18.304Z,13.00
2022-10-31T05:33:46.433Z,12.90
2022-10-31T05:36:33.443Z,12.90
2022-10-31T05:39:05.199Z,12.90
2022-10-31T05:41:40.904Z,12.90
2022-10-31T05:44:22.911Z,12.90
2022-10-31T05:47:02.055Z,12.90
2022-10-31T05:49:51.299Z,12.90
2022-10-31T05:52:43.603Z,12.90
2022-10-31T05:55:32.394Z,12.90
2022-10-31T05:58:12.310Z,12.90
2022-10-31T06:00:43.899Z,12.90
2022-10-31T06:03:15.866Z,12.90
2022-10-31T06:05:55.379Z,12.90
2022-10-31T06:08:31.868Z,12.90
2022-10-31T06:11:05.276Z,12.90
2022-10-31T06:13:54.911Z,12.90
2022-10-31T06:16:45.305Z,12.90
2022-10-31T06:19:34.285Z,12.90
2022-10-31T06:22:30.819Z,12.80
2022-10-31T06:25:11.310Z,12.90
2022-10-31T06:27:48.868Z,12.90
2022-10-31T06:30:35.616Z,12.90
2022-10-31T06:33:08.759Z,12.90
2022-10-31T06:35:40.214Z,12.90
2022-10-31T06:38:08.702Z,13.00
2022-10-31T06:40:39.839Z,13.00
2022-10-31T06:43:21.680Z,13.00
2022-10-31T06:45:56.594Z,13.00
2022-10-31T06:48:46.563Z,13.00
2022-10-31T06:51:41.183Z,13.10
2022-10-31T06:54:16.828Z,13.10
2022-10-31T06:56:51.555Z,13.20
2022-10-31T06:59:24.316Z,13.20
2022-10-31T07:02:03.725Z,13.20
2022-10-31T07:04:33.694Z,13.30
2022-10-31T07:07:01.245Z,13.30
2022-10-31T07:09:28.234Z,13.40
2022-10-31T07:11:57.491Z,13.40
2022-10-31T07:14:26.600Z,13.40
2022-10-31T07:16:56.421Z,13.50
2022-10-31T07:19:31.535Z,13.50
2022-10-31T07:22:00.842Z,13.60
2022-10-31T07:24:30.208Z,13.70
2022-10-31T07:26:57.141Z,13.70
2022-10-31T07:29:24.035Z,13.80
2022-10-31T07:31:51.041Z,13.80
2022-10-31T07:34:28.834Z,13.90
2022-10-31T07:37:01.389Z,13.90
2022-10-31T07:39:28.298Z,14.00
2022-10-31T07:41:55.099Z,14.00
2022-10-31T07:44:21.929Z,14.10
2022-10-31T07:47:23.840Z,14.10
2022-10-31T07:50:13.881Z,14.20
2022-10-31T07:53:07.885Z,14.20
2022-10-31T07:56:00.667Z,14.30
2022-10-31T07:58:30.216Z,14.30
2022-10-31T08:00:59.480Z,14.30
2022-10-31T08:03:34.613Z,14.40
2022-10-31T08:06:10.875Z,14.40
2022-10-31T08:08:58.345Z,14.40
2022-10-31T08:11:25.113Z,14.50
2022-10-31T08:13:53.005Z,14.50
2022-10-31T08:16:24.633Z,14.50
2022-10-31T08:19:02.803Z,14.50
2022-10-31T08:21:34.628Z,14.60
2022-10-31T08:24:04.114Z,14.60
2022-10-31T08:26:31.814Z,14.60
2022-10-31T08:29:03.326Z,14.60
2022-10-31T08:31:42.577Z,14.60
2022-10-31T08:34:28.614Z,14.70
2022-10-31T08:37:34.017Z,14.70
2022-10-31T08:40:01.040Z,14.70
2022-10-31T08:42:34.355Z,14.80
2022-10-31T08:45:01.537Z,14.90
2022-10-31T08:47:29.109Z,14.90
2022-10-31T08:49:56.778Z,14.90
2022-10-31T08:52:44.202Z,15.00
2022-10-31T08:55:12.257Z,15.00
2022-10-31T08:58:07.064Z,15.00
2022-10-31T09:00:53.031Z,15.00
2022-10-31T09:03:24.566Z,15.00
2022-10-31T09:05:55.783Z,15.10
2022-10-31T09:08:23.142Z,15.10
2022-10-31T09:10:51.467Z,15.10
2022-10-31T09:13:30.018Z,15.00
2022-10-31T09:16:15.487Z,15.00
2022-10-31T09:18:43.776Z,15.00
2022-10-31T09:21:10.702Z,15.10
2022-10-31T09:23:37.664Z,15.10
2022-10-31T09:26:05.831Z,15.10
2022-10-31T09:28:42.533Z,15.10
2022-10-31T09:31:12.281Z,15.20
2022-10-31T09:34:00.250Z,15.20
2022-10-31T09:36:36.104Z,15.20
2022-10-31T09:39:04.989Z,15.20
2022-10-31T09:41:59.603Z,15.20
2022-10-31T09:44:45.380Z,15.20
2022-10-31T09:47:26.966Z,15.20
2022-10-31T09:50:23.117Z,15.20
2022-10-31T09:53:26.642Z,15.20
2022-10-31T09:55:56.014Z,15.30
2022-10-31T09:58:29.020Z,15.30
2022-10-31T10:01:00.110Z,15.30
2022-10-31T10:03:47.607Z,15.40
2022-10-31T10:06:42.906Z,15.40
2022-10-31T10:09:32.720Z,15.50
2022-10-31T10:13:03.429Z,15.50
2022-10-31T10:15:41.747Z,15.50
2022-10-31T10:18:17.618Z,15.50
2022-10-31T10:21:15.835Z,15.50
2022-10-31T10:23:53.590Z,15.50
2022-10-31T10:26:35.113Z,15.60
2022-10-31T10:29:28.279Z,15.60
2022-10-31T10:31:58.171Z,15.60
2022-10-31T10:35:05.935Z,15.70
2022-10-31T10:37:41.864Z,15.70
2022-10-31T10:40:20.364Z,15.80
2022-10-31T10:43:22.519Z,15.80
2022-10-31T10:46:28.385Z,15.80
2022-10-31T10:49:17.911Z,15.90
2022-10-31T10:55:06.741Z,15.90
2022-10-31T10:57:47.519Z,16.00
2022-10-31T11:00:20.031Z,16.00
2022-10-31T11:02:49.490Z,16.00
2022-10-31T11:05:21.531Z,16.00
2022-10-31T11:07:53.275Z,16.00
2022-10-31T11:10:20.207Z,16.10
2022-10-31T11:13:18.550Z,16.10
2022-10-31T11:15:56.666Z,16.10
2022-10-31T11:18:28.159Z,16.20
2022-10-31T11:20:59.955Z,16.20
2022-10-31T11:23:28.965Z,16.20
2022-10-31T11:26:05.822Z,16.20
2022-10-31T11:28:36.128Z,16.20
2022-10-31T11:31:11.683Z,16.30
2022-10-31T11:33:48.984Z,16.30
2022-10-31T11:36:26.796Z,16.40
2022-10-31T11:38:55.067Z,16.40
2022-10-31T11:41:33.742Z,16.40
2022-10-31T11:44:11.376Z,16.50
2022-10-31T11:46:45.622Z,16.50
2022-10-31T11:49:37.198Z,16.50
2022-10-31T11:52:32.469Z,16.50
2022-10-31T11:55:16.120Z,16.50
2022-10-31T11:57:56.094Z,16.50
2022-10-31T12:00:32.662Z,16.50
2022-10-31T12:03:30.966Z,16.60
2022-10-31T12:06:03.389Z,16.60
2022-10-31T12:08:36.216Z,16.60
2022-10-31T12:11:02.921Z,16.60
2022-10-31T12:13:48.247Z,16.60
2022-10-31T12:16:49.892Z,16.60
2022-10-31T12:19:44.716Z,16.70
2022-10-31T12:22:42.720Z,16.70
2022-10-31T12:25:24.657Z,16.70
2022-10-31T12:28:10.481Z,16.70
2022-10-31T12:31:08.347Z,16.80
2022-10-31T12:34:00.232Z,16.80
2022-10-31T12:36:48.318Z,16.80
2022-10-31T12:39:41.996Z,16.80
2022-10-31T12:42:29.983Z,16.80
2022-10-31T12:45:16.055Z,16.80
2022-10-31T12:48:05.571Z,16.80
2022-10-31T12:51:10.032Z,16.90
2022-10-31T12:53:39.526Z,16.90
2022-10-31T12:56:09.125Z,16.90
2022-10-31T12:58:46.953Z,16.90
2022-10-31T13:01:22.456Z,16.90
2022-10-31T13:04:12.677Z,16.90
2022-10-31T13:06:45.027Z,17.00
2022-10-31T13:09:17.986Z,17.00
2022-10-31T13:12:00.484Z,17.00
2022-10-31T13:14:42.766Z,17.00
2022-10-31T13:17:28.813Z,17.00
2022-10-31T13:20:27.321Z,17.00
2022-10-31T13:23:49.159Z,17.00
2022-10-31T13:26:23.322Z,17.00
2022-10-31T13:29:16.699Z,17.00
2022-10-31T13:31:46.181Z,17.00
2022-10-31T13:34:33.100Z,17.00
2022-10-31T13:37:23.085Z,17.00
2022-10-31T13:40:12.029Z,17.00
2022-10-31T13:42:48.764Z,17.00
2022-10-31T13:45:17.115Z,17.00
2022-10-31T13:47:55.544Z,17.00
2022-10-31T13:50:25.562Z,17.00
2022-10-31T13:53:11.208Z,17.00
2022-10-31T13:55:42.229Z,17.00
2022-10-31T13:58:21.286Z,17.00
2022-10-31T14:01:23.105Z,17.00
2022-10-31T14:04:24.892Z,17.00
2022-10-31T14:07:14.348Z,17.00
2022-10-31T14:10:04.628Z,17.00
2022-10-31T14:12:54.919Z,17.00
2022-10-31T14:15:26.914Z,16.90
2022-10-31T14:17:56.466Z,16.90
2022-10-31T14:20:42.290Z,16.90
2022-10-31T14:23:33.690Z,16.90
2022-10-31T14:26:26.597Z,16.90
2022-10-31T14:28:57.803Z,16.90
2022-10-31T14:31:44.124Z,16.90
2022-10-31T14:35:01.737Z,16.80
2022-10-31T14:38:03.037Z,16.80
2022-10-31T14:40:45.440Z,16.80
2022-10-31T14:43:46.216Z,16.70
2022-10-31T14:46:37.561Z,16.70
2022-10-31T14:49:26.554Z,16.70
2022-10-31T14:51:56.459Z,16.60
2022-10-31T14:54:36.696Z,16.70
2022-10-31T14:57:15.015Z,16.60
2022-10-31T14:59:49.765Z,16.50
2022-10-31T15:02:37.730Z,16.50
2022-10-31T15:05:15.154Z,16.50
2022-10-31T15:07:57.016Z,16.40
2022-10-31T15:10:28.118Z,16.40
2022-10-31T15:13:08.976Z,16.40
2022-10-31T15:15:36.229Z,16.30
2022-10-31T15:18:05.971Z,16.30
2022-10-31T15:20:43.554Z,16.20
2022-10-31T15:23:15.514Z,16.20
2022-10-31T15:25:47.480Z,16.20
2022-10-31T15:28:24.094Z,16.20
2022-10-31T15:30:59.770Z,16.10
2022-10-31T15:33:32.396Z,16.10
2022-10-31T15:36:07.013Z,16.00
2022-10-31T15:38:34.115Z,16.00
2022-10-31T15:41:07.358Z,16.00
2022-10-31T15:43:38.141Z,15.90
2022-10-31T15:46:07.803Z,15.90
2022-10-31T15:48:35.931Z,15.80
2022-10-31T15:51:03.859Z,15.80
2022-10-31T15:53:49.334Z,15.80
2022-10-31T15:56:24.885Z,15.80
2022-10-31T15:58:57.392Z,15.70
2022-10-31T16:01:24.375Z,15.70
2022-10-31T16:04:24.266Z,15.70
2022-10-31T16:07:04.476Z,15.70
2022-10-31T16:09:31.376Z,15.60
2022-10-31T16:12:01.308Z,15.60
2022-10-31T16:14:34.476Z,15.60
2022-10-31T16:17:02.528Z,15.60
2022-10-31T16:19:32.639Z,15.60
2022-10-31T16:22:33.829Z,15.60
2022-10-31T16:25:09.544Z,15.60
2022-10-31T16:27:38.001Z,15.50
2022-10-31T16:30:53.011Z,15.50
2022-10-31T16:33:25.001Z,15.50
2022-10-31T16:36:04.233Z,15.50
2022-10-31T16:38:36.622Z,15.50
2022-10-31T16:41:03.366Z,15.50
2022-10-31T16:43:30.093Z,15.50
2022-10-31T16:45:56.889Z,15.50
2022-10-31T16:48:24.216Z,15.50
2022-10-31T16:50:54.318Z,15.50
2022-10-31T16:53:24.202Z,15.50
2022-10-31T16:56:02.112Z,15.50
2022-10-31T16:58:37.965Z,15.40
2022-10-31T17:01:06.667Z,15.40
2022-10-31T17:03:36.422Z,15.40
2022-10-31T17:06:03.377Z,15.40
2022-10-31T17:08:30.923Z,15.40
2022-10-31T17:10:59.444Z,15.40
2022-10-31T17:13:36.537Z,15.40
2022-10-31T17:16:04.147Z,15.40
2022-10-31T17:18:37.348Z,15.40
2022-10-31T17:21:06.161Z,15.40
2022-10-31T17:23:35.870Z,15.40
2022-10-31T17:26:02.733Z,15.40
2022-10-31T17:28:29.511Z,15.30
2022-10-31T17:30:59.612Z,15.30
2022-10-31T17:33:26.537Z,15.30
2022-10-31T17:35:53.667Z,15.30
2022-10-31T17:38:22.825Z,15.30
2022-10-31T17:40:51.876Z,15.30
2022-10-31T17:43:18.858Z,15.30
2022-10-31T17:45:45.616Z,15.30
2022-10-31T17:48:14.903Z,15.30
2022-10-31T17:50:44.215Z,15.30
2022-10-31T17:53:10.937Z,15.20
2022-10-31T17:55:40.242Z,15.20
2022-10-31T17:58:07.028Z,15.20
2022-10-31T18:00:34.063Z,15.20
2022-10-31T18:03:04.587Z,15.20
2022-10-31T18:05:40.543Z,15.20
2022-10-31T18:08:09.367Z,15.20
2022-10-31T18:10:38.836Z,15.20
2022-10-31T18:13:10.130Z,15.10
2022-10-31T18:15:40.080Z,15.10
2022-10-31T18:18:11.597Z,15.10
2022-10-31T18:20:41.034Z,15.10
2022-10-31T18:23:07.865Z,15.10
2022-10-31T18:25:38.917Z,15.10
2022-10-31T18:28:06.432Z,15.10
2022-10-31T18:30:36.861Z,15.10
2022-10-31T18:33:06.114Z,15.10
2022-10-31T18:35:38.257Z,15.10
2022-10-31T18:38:08.099Z,15.10
2022-10-31T18:40:39.272Z,15.10
2022-10-31T18:43:08.525Z,15.10
2022-10-31T18:45:47.120Z,15.10
2022-10-31T18:48:19.053Z,15.10
2022-10-31T18:50:45.778Z,15.10
2022-10-31T18:53:15.170Z,15.10
2022-10-31T18:55:49.245Z,15.10
2022-10-31T18:58:17.462Z,15.00
2022-10-31T19:00:44.861Z,15.00
2022-10-31T19:03:12.588Z,15.00
2022-10-31T19:05:41.847Z,15.00
2022-10-31T19:08:10.746Z,15.00
2022-10-31T19:10:41.348Z,15.00
2022-10-31T19:13:08.590Z,15.00
2022-10-31T19:15:35.803Z,15.00
2022-10-31T19:18:03.354Z,15.00
2022-10-31T19:20:33.409Z,15.00
2022-10-31T19:23:05.321Z,15.00
2022-10-31T19:25:34.319Z,15.00
2022-10-31T19:28:01.421Z,15.00
2022-10-31T19:30:33.181Z,15.00
2022-10-31T19:32:59.907Z,15.00
2022-10-31T19:35:28.915Z,15.00
2022-10-31T19:37:55.719Z,15.00
2022-10-31T19:40:24.531Z,15.00
2022-10-31T19:42:51.405Z,15.00
2022-10-31T19:45:18.543Z,15.00
2022-10-31T19:47:45.373Z,15.00
2022-10-31T19:50:12.116Z,15.00
2022-10-31T19:52:41.174Z,15.00
2022-10-31T19:55:08.291Z,15.00
2022-10-31T19:58:00.195Z,15.00
2022-10-31T20:00:28.984Z,15.00
2022-10-31T20:02:59.994Z,15.00
2022-10-31T20:05:29.468Z,15.00
2022-10-31T20:07:59.141Z,15.00
2022-10-31T20:10:25.956Z,14.90
2022-10-31T20:12:52.825Z,14.90
2022-10-31T20:15:19.632Z,14.90
2022-10-31T20:17:46.440Z,14.90
2022-10-31T20:20:13.333Z,14.90
2022-10-31T20:22:40.454Z,14.90
2022-10-31T20:25:07.824Z,14.90
2022-10-31T20:27:34.965Z,14.90
2022-10-31T20:30:01.865Z,14.90
2022-10-31T20:32:28.703Z,14.90
2022-10-31T20:34:55.590Z,14.90
2022-10-31T20:37:22.793Z,14.90
2022-10-31T20:39:52.623Z,14.80
2022-10-31T20:42:23.694Z,14.80
2022-10-31T20:44:50.445Z,14.80
2022-10-31T20:47:20.561Z,14.90
2022-10-31T20:49:51.871Z,14.90
2022-10-31T20:52:18.649Z,14.90
2022-10-31T20:54:47.665Z,14.80
2022-10-31T20:57:14.419Z,14.80
2022-10-31T20:59:43.550Z,14.80
2022-10-31T21:02:12.512Z,14.90
2022-10-31T21:04:39.422Z,14.90
2022-10-31T21:07:08.712Z,14.80
2022-10-31T21:09:35.574Z,14.90
2022-10-31T21:12:04.714Z,14.80
2022-10-31T21:14:34.107Z,14.90
2022-10-31T21:17:04.130Z,14.80
2022-10-31T21:19:35.042Z,14.80
2022-10-31T21:22:04.063Z,14.70
2022-10-31T21:24:30.834Z,14.70
2022-10-31T21:26:57.826Z,14.70
2022-10-31T21:29:24.694Z,14.70
2022-10-31T21:31:51.878Z,14.70
2022-10-31T21:34:23.184Z,14.60
2022-10-31T21:36:50.086Z,14.60
2022-10-31T21:39:17.071Z,14.60
2022-10-31T21:41:46.114Z,14.60
2022-10-31T21:44:13.453Z,14.60
2022-10-31T21:46:40.330Z,14.60
2022-10-31T21:49:11.176Z,14.60
2022-10-31T21:51:38.058Z,14.50
2022-10-31T21:54:24.057Z,14.40
2022-10-31T21:56:51.746Z,14.50
2022-10-31T21:59:18.706Z,14.50
2022-10-31T22:01:45.632Z,14.50
2022-10-31T22:04:18.680Z,14.50
2022-10-31T22:06:46.225Z,14.50
2022-10-31T22:09:15.546Z,14.40
2022-10-31T22:11:45.663Z,14.40
2022-10-31T22:14:14.418Z,14.50
2022-10-31T22:16:41.513Z,14.40
2022-10-31T22:19:10.473Z,14.40
2022-10-31T22:21:46.732Z,14.50
2022-10-31T22:24:13.907Z,14.40
2022-10-31T22:26:43.250Z,14.50
2022-10-31T22:29:18.396Z,14.50
2022-10-31T22:31:50.629Z,14.50
2022-10-31T22:34:20.834Z,14.40
2022-10-31T22:36:47.857Z,14.50
2022-10-31T22:39:14.908Z,14.40
2022-10-31T22:41:43.898Z,14.50
2022-10-31T22:44:10.922Z,14.50
2022-10-31T22:46:39.762Z,14.50
2022-10-31T22:49:13.891Z,14.50
2022-10-31T22:51:41.839Z,14.40
2022-10-31T22:54:16.345Z,14.50
2022-10-31T22:56:43.832Z,14.50
2022-10-31T22:59:15.246Z,14.50
2022-10-31T23:01:45.445Z,14.40
2022-10-31T23:04:13.122Z,14.50
2022-10-31T23:06:40.246Z,14.40
2022-10-31T23:09:08.812Z,14.40
2022-10-31T23:11:40.014Z,14.30
2022-10-31T23:14:16.474Z,14.30
2022-10-31T23:16:51.056Z,14.30
2022-10-31T23:19:23.418Z,14.20
2022-10-31T23:22:00.281Z,14.30
2022-10-31T23:24:27.420Z,14.30
2022-10-31T23:27:09.718Z,14.30
2022-10-31T23:29:38.054Z,14.30
2022-10-31T23:32:07.288Z,14.30
2022-10-31T23:34:36.593Z,14.30
2022-10-31T23:39:35.203Z,14.30
2022-10-31T23:42:07.293Z,14.30
2022-10-31T23:44:36.558Z,14.30
2022-10-31T23:47:06.171Z,14.30
2022-10-31T23:49:32.993Z,14.30
2022-10-31T23:51:59.895Z,14.30
2022-10-31T23:54:27.612Z,14.30
2022-10-31T23:56:54.612Z,14.30
2022-10-31T23:59:24.541Z,14.20
